sensor_id;sensor_type;location;lat;lon;timestamp;P1;durP1;ratioP1;P2;durP2;ratioP2
20480;SDS011;10399;50.754;3.366;2024-01-15T00:00:29;8.68;;;5.47;;
20480;SDS011;10399;50.754;3.366;2024-01-15T00:02:56;8.52;;;5.20;;
20480;SDS011;10399;50.754;3.366;2024-01-15T00:05:24;11.93;;;5.55;;
20480;SDS011;10399;50.754;3.366;2024-01-15T00:07:51;9.60;;;5.28;;
20480;SDS011;10399;50.754;3.366;2024-01-15T00:10:17;7.88;;;4.78;;
20480;SDS011;10399;50.754;3.366;2024-01-15T00:12:44;10.23;;;5.30;;
20480;SDS011;10399;50.754;3.366;2024-01-15T00:15:11;9.27;;;5.47;;
20480;SDS011;10399;50.754;3.366;2024-01-15T00:17:39;11.18;;;5.80;;
20480;SDS011;10399;50.754;3.366;2024-01-15T00:20:06;9.85;;;5.47;;
20480;SDS011;10399;50.754;3.366;2024-01-15T00:22:34;10.13;;;5.65;;
20480;SDS011;10399;50.754;3.366;2024-01-15T00:25:02;8.38;;;5.60;;
20480;SDS011;10399;50.754;3.366;2024-01-15T00:27:29;10.63;;;5.75;;
20480;SDS011;10399;50.754;3.366;2024-01-15T00:29:56;17.40;;;5.80;;
20480;SDS011;10399;50.754;3.366;2024-01-15T00:32:23;13.10;;;5.78;;
20480;SDS011;10399;50.754;3.366;2024-01-15T00:34:50;9.10;;;5.25;;
20480;SDS011;10399;50.754;3.366;2024-01-15T00:37:17;10.40;;;5.18;;
20480;SDS011;10399;50.754;3.366;2024-01-15T00:39:44;9.88;;;5.15;;
20480;SDS011;10399;50.754;3.366;2024-01-15T00:42:11;8.75;;;5.60;;
20480;SDS011;10399;50.754;3.366;2024-01-15T00:44:39;8.65;;;5.07;;
20480;SDS011;10399;50.754;3.366;2024-01-15T00:47:06;9.85;;;5.57;;
20480;SDS011;10399;50.754;3.366;2024-01-15T00:49:33;10.35;;;4.90;;
20480;SDS011;10399;50.754;3.366;2024-01-15T00:52:00;9.13;;;5.10;;
20480;SDS011;10399;50.754;3.366;2024-01-15T00:54:26;10.32;;;5.30;;
20480;SDS011;10399;50.754;3.366;2024-01-15T00:56:54;12.38;;;5.47;;
20480;SDS011;10399;50.754;3.366;2024-01-15T00:59:21;9.38;;;5.10;;
20480;SDS011;10399;50.754;3.366;2024-01-15T01:04:34;10.25;;;5.35;;
20480;SDS011;10399;50.754;3.366;2024-01-15T01:07:01;12.32;;;5.18;;
20480;SDS011;10399;50.754;3.366;2024-01-15T01:09:28;12.13;;;5.50;;
20480;SDS011;10399;50.754;3.366;2024-01-15T01:11:56;9.15;;;4.75;;
20480;SDS011;10399;50.754;3.366;2024-01-15T01:14:23;10.50;;;4.82;;
20480;SDS011;10399;50.754;3.366;2024-01-15T01:16:50;9.60;;;4.40;;
20480;SDS011;10399;50.754;3.366;2024-01-15T01:19:17;9.75;;;4.20;;
20480;SDS011;10399;50.754;3.366;2024-01-15T01:21:44;11.27;;;4.82;;
20480;SDS011;10399;50.754;3.366;2024-01-15T01:24:12;9.30;;;5.03;;
20480;SDS011;10399;50.754;3.366;2024-01-15T01:26:39;7.05;;;4.40;;
20480;SDS011;10399;50.754;3.366;2024-01-15T01:29:05;7.65;;;4.47;;
20480;SDS011;10399;50.754;3.366;2024-01-15T01:31:33;9.35;;;4.90;;
20480;SDS011;10399;50.754;3.366;2024-01-15T01:34:00;11.00;;;4.93;;
20480;SDS011;10399;50.754;3.366;2024-01-15T01:36:27;16.42;;;4.85;;
20480;SDS011;10399;50.754;3.366;2024-01-15T01:38:54;12.55;;;4.65;;
20480;SDS011;10399;50.754;3.366;2024-01-15T01:41:21;11.18;;;5.07;;
20480;SDS011;10399;50.754;3.366;2024-01-15T01:43:50;11.98;;;5.03;;
20480;SDS011;10399;50.754;3.366;2024-01-15T01:46:17;12.15;;;5.30;;
20480;SDS011;10399;50.754;3.366;2024-01-15T01:48:44;10.40;;;4.68;;
20480;SDS011;10399;50.754;3.366;2024-01-15T01:51:12;12.57;;;5.00;;
20480;SDS011;10399;50.754;3.366;2024-01-15T01:53:39;9.15;;;5.03;;
20480;SDS011;10399;50.754;3.366;2024-01-15T01:56:07;10.15;;;5.10;;
20480;SDS011;10399;50.754;3.366;2024-01-15T01:58:35;8.80;;;5.28;;
20480;SDS011;10399;50.754;3.366;2024-01-15T02:01:02;16.23;;;5.95;;
20480;SDS011;10399;50.754;3.366;2024-01-15T02:03:30;10.02;;;5.80;;
20480;SDS011;10399;50.754;3.366;2024-01-15T02:05:58;10.43;;;5.80;;
20480;SDS011;10399;50.754;3.366;2024-01-15T02:08:27;15.02;;;5.93;;
20480;SDS011;10399;50.754;3.366;2024-01-15T02:10:54;10.85;;;6.40;;
20480;SDS011;10399;50.754;3.366;2024-01-15T02:13:21;12.13;;;6.50;;
20480;SDS011;10399;50.754;3.366;2024-01-15T02:15:48;11.10;;;6.32;;
20480;SDS011;10399;50.754;3.366;2024-01-15T02:18:16;12.07;;;7.13;;
20480;SDS011;10399;50.754;3.366;2024-01-15T02:20:43;13.32;;;7.40;;
20480;SDS011;10399;50.754;3.366;2024-01-15T02:23:13;13.00;;;7.30;;
20480;SDS011;10399;50.754;3.366;2024-01-15T02:25:42;11.02;;;7.00;;
20480;SDS011;10399;50.754;3.366;2024-01-15T02:28:14;11.88;;;6.38;;
20480;SDS011;10399;50.754;3.366;2024-01-15T02:30:42;13.23;;;6.15;;
20480;SDS011;10399;50.754;3.366;2024-01-15T02:33:11;11.07;;;6.70;;
20480;SDS011;10399;50.754;3.366;2024-01-15T02:35:39;11.55;;;6.25;;
20480;SDS011;10399;50.754;3.366;2024-01-15T02:38:07;15.40;;;6.60;;
20480;SDS011;10399;50.754;3.366;2024-01-15T02:40:34;15.23;;;6.40;;
20480;SDS011;10399;50.754;3.366;2024-01-15T02:43:02;16.95;;;7.32;;
20480;SDS011;10399;50.754;3.366;2024-01-15T02:45:29;11.88;;;6.90;;
20480;SDS011;10399;50.754;3.366;2024-01-15T02:47:57;14.80;;;7.53;;
20480;SDS011;10399;50.754;3.366;2024-01-15T02:50:24;13.25;;;6.82;;
20480;SDS011;10399;50.754;3.366;2024-01-15T02:52:51;11.30;;;6.80;;
20480;SDS011;10399;50.754;3.366;2024-01-15T02:55:18;13.02;;;6.90;;
20480;SDS011;10399;50.754;3.366;2024-01-15T02:57:45;11.90;;;7.10;;
20480;SDS011;10399;50.754;3.366;2024-01-15T03:00:13;12.88;;;7.50;;
20480;SDS011;10399;50.754;3.366;2024-01-15T03:02:40;13.25;;;7.45;;
20480;SDS011;10399;50.754;3.366;2024-01-15T03:05:13;14.50;;;7.25;;
20480;SDS011;10399;50.754;3.366;2024-01-15T03:07:41;12.68;;;7.50;;
20480;SDS011;10399;50.754;3.366;2024-01-15T03:10:08;14.20;;;7.45;;
20480;SDS011;10399;50.754;3.366;2024-01-15T03:12:35;16.90;;;7.10;;
20480;SDS011;10399;50.754;3.366;2024-01-15T03:15:02;12.68;;;7.20;;
20480;SDS011;10399;50.754;3.366;2024-01-15T03:17:30;12.45;;;7.05;;
20480;SDS011;10399;50.754;3.366;2024-01-15T03:19:57;12.90;;;7.25;;
20480;SDS011;10399;50.754;3.366;2024-01-15T03:22:24;13.23;;;6.88;;
20480;SDS011;10399;50.754;3.366;2024-01-15T03:24:52;12.05;;;6.38;;
20480;SDS011;10399;50.754;3.366;2024-01-15T03:27:19;18.45;;;6.63;;
20480;SDS011;10399;50.754;3.366;2024-01-15T03:29:46;14.32;;;7.00;;
20480;SDS011;10399;50.754;3.366;2024-01-15T03:32:13;15.27;;;7.22;;
20480;SDS011;10399;50.754;3.366;2024-01-15T03:34:40;12.73;;;6.85;;
20480;SDS011;10399;50.754;3.366;2024-01-15T03:37:07;14.20;;;6.43;;
20480;SDS011;10399;50.754;3.366;2024-01-15T03:39:34;11.10;;;6.32;;
20480;SDS011;10399;50.754;3.366;2024-01-15T03:42:01;11.18;;;6.68;;
20480;SDS011;10399;50.754;3.366;2024-01-15T03:44:28;10.65;;;6.68;;
20480;SDS011;10399;50.754;3.366;2024-01-15T03:46:55;14.40;;;7.30;;
20480;SDS011;10399;50.754;3.366;2024-01-15T03:49:22;14.23;;;7.05;;
20480;SDS011;10399;50.754;3.366;2024-01-15T03:51:50;15.70;;;7.05;;
20480;SDS011;10399;50.754;3.366;2024-01-15T03:54:18;13.93;;;6.53;;
20480;SDS011;10399;50.754;3.366;2024-01-15T03:56:46;11.23;;;6.05;;
20480;SDS011;10399;50.754;3.366;2024-01-15T03:59:13;17.45;;;5.57;;
20480;SDS011;10399;50.754;3.366;2024-01-15T04:01:40;12.20;;;4.70;;
20480;SDS011;10399;50.754;3.366;2024-01-15T04:04:07;12.73;;;5.15;;
20480;SDS011;10399;50.754;3.366;2024-01-15T04:06:34;9.20;;;4.90;;
20480;SDS011;10399;50.754;3.366;2024-01-15T04:09:02;10.43;;;4.72;;
20480;SDS011;10399;50.754;3.366;2024-01-15T04:11:29;10.88;;;5.18;;
20480;SDS011;10399;50.754;3.366;2024-01-15T04:13:56;11.85;;;5.40;;
20480;SDS011;10399;50.754;3.366;2024-01-15T04:16:23;8.35;;;4.53;;
20480;SDS011;10399;50.754;3.366;2024-01-15T04:18:50;9.15;;;4.93;;
20480;SDS011;10399;50.754;3.366;2024-01-15T04:21:17;9.75;;;5.05;;
20480;SDS011;10399;50.754;3.366;2024-01-15T04:23:45;12.68;;;4.97;;
20480;SDS011;10399;50.754;3.366;2024-01-15T04:26:12;11.43;;;4.45;;
20480;SDS011;10399;50.754;3.366;2024-01-15T04:28:39;7.65;;;4.25;;
20480;SDS011;10399;50.754;3.366;2024-01-15T04:31:06;7.80;;;4.32;;
20480;SDS011;10399;50.754;3.366;2024-01-15T04:33:34;8.40;;;3.17;;
20480;SDS011;10399;50.754;3.366;2024-01-15T04:36:02;7.13;;;3.60;;
20480;SDS011;10399;50.754;3.366;2024-01-15T04:38:30;7.30;;;3.40;;
20480;SDS011;10399;50.754;3.366;2024-01-15T04:40:58;4.85;;;2.90;;
20480;SDS011;10399;50.754;3.366;2024-01-15T04:43:25;5.70;;;3.00;;
20480;SDS011;10399;50.754;3.366;2024-01-15T04:45:52;5.97;;;3.05;;
20480;SDS011;10399;50.754;3.366;2024-01-15T04:48:19;3.60;;;2.13;;
20480;SDS011;10399;50.754;3.366;2024-01-15T04:50:46;7.88;;;2.70;;
20480;SDS011;10399;50.754;3.366;2024-01-15T04:53:14;6.38;;;2.40;;
20480;SDS011;10399;50.754;3.366;2024-01-15T04:55:41;3.95;;;2.20;;
20480;SDS011;10399;50.754;3.366;2024-01-15T04:58:08;4.68;;;2.30;;
20480;SDS011;10399;50.754;3.366;2024-01-15T05:00:35;4.60;;;1.75;;
20480;SDS011;10399;50.754;3.366;2024-01-15T05:03:02;4.57;;;2.00;;
20480;SDS011;10399;50.754;3.366;2024-01-15T05:05:30;6.07;;;2.00;;
20480;SDS011;10399;50.754;3.366;2024-01-15T05:07:57;7.07;;;2.05;;
20480;SDS011;10399;50.754;3.366;2024-01-15T05:10:24;6.82;;;1.90;;
20480;SDS011;10399;50.754;3.366;2024-01-15T05:12:50;8.23;;;1.67;;
20480;SDS011;10399;50.754;3.366;2024-01-15T05:15:17;2.67;;;1.92;;
20480;SDS011;10399;50.754;3.366;2024-01-15T05:17:44;7.00;;;2.83;;
20480;SDS011;10399;50.754;3.366;2024-01-15T05:20:11;2.63;;;1.83;;
20480;SDS011;10399;50.754;3.366;2024-01-15T05:22:39;6.60;;;2.00;;
20480;SDS011;10399;50.754;3.366;2024-01-15T05:25:06;8.57;;;2.10;;
20480;SDS011;10399;50.754;3.366;2024-01-15T05:27:33;7.55;;;2.30;;
20480;SDS011;10399;50.754;3.366;2024-01-15T05:30:00;6.80;;;2.85;;
20480;SDS011;10399;50.754;3.366;2024-01-15T05:32:28;10.27;;;2.63;;
20480;SDS011;10399;50.754;3.366;2024-01-15T05:34:55;6.30;;;2.47;;
20480;SDS011;10399;50.754;3.366;2024-01-15T05:37:22;7.75;;;2.50;;
20480;SDS011;10399;50.754;3.366;2024-01-15T05:39:49;7.53;;;3.05;;
20480;SDS011;10399;50.754;3.366;2024-01-15T05:42:16;6.28;;;3.13;;
20480;SDS011;10399;50.754;3.366;2024-01-15T05:44:43;5.90;;;3.20;;
20480;SDS011;10399;50.754;3.366;2024-01-15T05:47:10;6.70;;;3.43;;
20480;SDS011;10399;50.754;3.366;2024-01-15T05:49:37;5.85;;;2.78;;
20480;SDS011;10399;50.754;3.366;2024-01-15T05:52:05;11.07;;;3.13;;
20480;SDS011;10399;50.754;3.366;2024-01-15T05:54:32;7.72;;;2.35;;
20480;SDS011;10399;50.754;3.366;2024-01-15T05:56:59;11.18;;;2.78;;
20480;SDS011;10399;50.754;3.366;2024-01-15T05:59:26;9.13;;;2.70;;
20480;SDS011;10399;50.754;3.366;2024-01-15T06:01:53;7.60;;;2.50;;
20480;SDS011;10399;50.754;3.366;2024-01-15T06:04:20;9.85;;;2.97;;
20480;SDS011;10399;50.754;3.366;2024-01-15T06:06:47;6.90;;;2.90;;
20480;SDS011;10399;50.754;3.366;2024-01-15T06:09:14;9.23;;;2.80;;
20480;SDS011;10399;50.754;3.366;2024-01-15T06:11:41;11.10;;;2.50;;
20480;SDS011;10399;50.754;3.366;2024-01-15T06:14:08;9.70;;;2.70;;
20480;SDS011;10399;50.754;3.366;2024-01-15T06:16:35;14.50;;;2.78;;
20480;SDS011;10399;50.754;3.366;2024-01-15T06:19:02;5.70;;;2.67;;
20480;SDS011;10399;50.754;3.366;2024-01-15T06:21:30;9.15;;;3.00;;
20480;SDS011;10399;50.754;3.366;2024-01-15T06:23:57;15.10;;;3.28;;
20480;SDS011;10399;50.754;3.366;2024-01-15T06:26:24;8.88;;;2.58;;
20480;SDS011;10399;50.754;3.366;2024-01-15T06:28:51;8.43;;;2.90;;
20480;SDS011;10399;50.754;3.366;2024-01-15T06:31:18;11.13;;;2.53;;
20480;SDS011;10399;50.754;3.366;2024-01-15T06:33:45;13.07;;;2.58;;
20480;SDS011;10399;50.754;3.366;2024-01-15T06:36:14;7.93;;;2.50;;
20480;SDS011;10399;50.754;3.366;2024-01-15T06:38:44;10.43;;;3.22;;
20480;SDS011;10399;50.754;3.366;2024-01-15T06:41:11;7.80;;;3.47;;
20480;SDS011;10399;50.754;3.366;2024-01-15T06:43:38;6.32;;;2.55;;
20480;SDS011;10399;50.754;3.366;2024-01-15T06:46:05;10.80;;;2.58;;
20480;SDS011;10399;50.754;3.366;2024-01-15T06:48:34;9.52;;;3.70;;
20480;SDS011;10399;50.754;3.366;2024-01-15T06:51:01;8.82;;;2.20;;
20480;SDS011;10399;50.754;3.366;2024-01-15T06:53:31;15.07;;;2.63;;
20480;SDS011;10399;50.754;3.366;2024-01-15T06:55:58;7.32;;;1.80;;
20480;SDS011;10399;50.754;3.366;2024-01-15T06:58:25;8.27;;;2.40;;
20480;SDS011;10399;50.754;3.366;2024-01-15T07:00:52;10.32;;;2.65;;
20480;SDS011;10399;50.754;3.366;2024-01-15T07:03:19;6.43;;;1.70;;
20480;SDS011;10399;50.754;3.366;2024-01-15T07:05:47;9.48;;;2.63;;
20480;SDS011;10399;50.754;3.366;2024-01-15T07:08:14;7.63;;;2.25;;
20480;SDS011;10399;50.754;3.366;2024-01-15T07:10:41;7.13;;;2.38;;
20480;SDS011;10399;50.754;3.366;2024-01-15T07:13:08;4.53;;;2.00;;
20480;SDS011;10399;50.754;3.366;2024-01-15T07:15:35;7.25;;;2.67;;
20480;SDS011;10399;50.754;3.366;2024-01-15T07:18:02;7.05;;;2.38;;
20480;SDS011;10399;50.754;3.366;2024-01-15T07:20:33;9.05;;;2.38;;
20480;SDS011;10399;50.754;3.366;2024-01-15T07:23:00;8.57;;;1.90;;
20480;SDS011;10399;50.754;3.366;2024-01-15T07:25:27;12.13;;;2.60;;
20480;SDS011;10399;50.754;3.366;2024-01-15T07:27:54;8.35;;;3.10;;
20480;SDS011;10399;50.754;3.366;2024-01-15T07:30:22;9.50;;;2.53;;
20480;SDS011;10399;50.754;3.366;2024-01-15T07:32:49;5.85;;;2.35;;
20480;SDS011;10399;50.754;3.366;2024-01-15T07:35:25;7.97;;;2.75;;
20480;SDS011;10399;50.754;3.366;2024-01-15T07:37:53;7.70;;;2.03;;
20480;SDS011;10399;50.754;3.366;2024-01-15T07:40:20;4.07;;;2.03;;
20480;SDS011;10399;50.754;3.366;2024-01-15T07:42:47;5.00;;;1.90;;
20480;SDS011;10399;50.754;3.366;2024-01-15T07:45:21;5.07;;;1.95;;
20480;SDS011;10399;50.754;3.366;2024-01-15T07:47:50;7.22;;;2.15;;
20480;SDS011;10399;50.754;3.366;2024-01-15T07:50:27;7.10;;;2.42;;
20480;SDS011;10399;50.754;3.366;2024-01-15T07:52:56;3.88;;;1.85;;
20480;SDS011;10399;50.754;3.366;2024-01-15T07:55:23;6.65;;;2.17;;
20480;SDS011;10399;50.754;3.366;2024-01-15T07:57:51;6.85;;;2.30;;
20480;SDS011;10399;50.754;3.366;2024-01-15T08:00:31;7.18;;;2.50;;
20480;SDS011;10399;50.754;3.366;2024-01-15T08:02:59;9.30;;;2.40;;
20480;SDS011;10399;50.754;3.366;2024-01-15T08:05:26;8.43;;;2.30;;
20480;SDS011;10399;50.754;3.366;2024-01-15T08:10:45;5.43;;;1.85;;
20480;SDS011;10399;50.754;3.366;2024-01-15T08:13:12;8.50;;;2.38;;
20480;SDS011;10399;50.754;3.366;2024-01-15T08:15:40;6.43;;;2.75;;
20480;SDS011;10399;50.754;3.366;2024-01-15T08:18:08;8.00;;;2.60;;
20480;SDS011;10399;50.754;3.366;2024-01-15T08:20:35;4.88;;;2.20;;
20480;SDS011;10399;50.754;3.366;2024-01-15T08:23:03;7.75;;;2.83;;
20480;SDS011;10399;50.754;3.366;2024-01-15T08:25:30;11.43;;;2.65;;
20480;SDS011;10399;50.754;3.366;2024-01-15T08:27:57;8.23;;;2.83;;
20480;SDS011;10399;50.754;3.366;2024-01-15T08:30:24;11.02;;;3.47;;
20480;SDS011;10399;50.754;3.366;2024-01-15T08:32:54;10.60;;;2.30;;
20480;SDS011;10399;50.754;3.366;2024-01-15T08:35:25;3.55;;;2.50;;
20480;SDS011;10399;50.754;3.366;2024-01-15T08:37:52;7.53;;;2.88;;
20480;SDS011;10399;50.754;3.366;2024-01-15T08:40:20;5.50;;;2.67;;
20480;SDS011;10399;50.754;3.366;2024-01-15T08:42:47;8.35;;;2.63;;
20480;SDS011;10399;50.754;3.366;2024-01-15T08:45:14;4.63;;;2.45;;
20480;SDS011;10399;50.754;3.366;2024-01-15T08:47:41;7.63;;;2.17;;
20480;SDS011;10399;50.754;3.366;2024-01-15T08:50:08;7.63;;;2.70;;
20480;SDS011;10399;50.754;3.366;2024-01-15T08:52:36;8.55;;;2.63;;
20480;SDS011;10399;50.754;3.366;2024-01-15T08:55:03;4.75;;;2.40;;
20480;SDS011;10399;50.754;3.366;2024-01-15T08:57:30;12.55;;;2.55;;
20480;SDS011;10399;50.754;3.366;2024-01-15T08:59:57;14.00;;;3.03;;
20480;SDS011;10399;50.754;3.366;2024-01-15T09:02:26;7.55;;;2.80;;
20480;SDS011;10399;50.754;3.366;2024-01-15T09:04:53;10.45;;;2.70;;
20480;SDS011;10399;50.754;3.366;2024-01-15T09:07:20;7.57;;;2.70;;
20480;SDS011;10399;50.754;3.366;2024-01-15T09:09:49;6.00;;;2.40;;
20480;SDS011;10399;50.754;3.366;2024-01-15T09:12:16;12.40;;;2.70;;
20480;SDS011;10399;50.754;3.366;2024-01-15T09:14:44;5.32;;;2.20;;
20480;SDS011;10399;50.754;3.366;2024-01-15T09:17:11;7.95;;;2.50;;
20480;SDS011;10399;50.754;3.366;2024-01-15T09:19:38;9.10;;;2.38;;
20480;SDS011;10399;50.754;3.366;2024-01-15T09:22:06;10.32;;;2.97;;
20480;SDS011;10399;50.754;3.366;2024-01-15T09:24:33;12.05;;;2.67;;
20480;SDS011;10399;50.754;3.366;2024-01-15T09:27:00;12.40;;;2.85;;
20480;SDS011;10399;50.754;3.366;2024-01-15T09:29:27;10.25;;;3.67;;
20480;SDS011;10399;50.754;3.366;2024-01-15T09:31:54;10.43;;;3.27;;
20480;SDS011;10399;50.754;3.366;2024-01-15T09:34:22;7.28;;;2.50;;
20480;SDS011;10399;50.754;3.366;2024-01-15T09:36:49;5.90;;;2.30;;
20480;SDS011;10399;50.754;3.366;2024-01-15T09:39:16;8.00;;;2.70;;
20480;SDS011;10399;50.754;3.366;2024-01-15T09:41:43;6.47;;;2.60;;
20480;SDS011;10399;50.754;3.366;2024-01-15T09:44:10;8.18;;;2.40;;
20480;SDS011;10399;50.754;3.366;2024-01-15T09:46:38;8.88;;;2.72;;
20480;SDS011;10399;50.754;3.366;2024-01-15T09:49:06;6.72;;;2.78;;
20480;SDS011;10399;50.754;3.366;2024-01-15T09:51:34;9.07;;;2.15;;
20480;SDS011;10399;50.754;3.366;2024-01-15T09:54:03;10.85;;;2.45;;
20480;SDS011;10399;50.754;3.366;2024-01-15T09:56:30;6.65;;;2.38;;
20480;SDS011;10399;50.754;3.366;2024-01-15T09:58:58;6.63;;;1.90;;
20480;SDS011;10399;50.754;3.366;2024-01-15T10:01:26;5.80;;;2.15;;
20480;SDS011;10399;50.754;3.366;2024-01-15T10:03:54;8.70;;;2.20;;
20480;SDS011;10399;50.754;3.366;2024-01-15T10:06:21;5.53;;;1.83;;
20480;SDS011;10399;50.754;3.366;2024-01-15T10:08:50;7.88;;;1.83;;
20480;SDS011;10399;50.754;3.366;2024-01-15T10:11:18;6.53;;;1.88;;
20480;SDS011;10399;50.754;3.366;2024-01-15T10:13:45;5.45;;;1.90;;
20480;SDS011;10399;50.754;3.366;2024-01-15T10:16:16;7.25;;;1.80;;
20480;SDS011;10399;50.754;3.366;2024-01-15T10:18:43;6.97;;;2.08;;
20480;SDS011;10399;50.754;3.366;2024-01-15T10:21:10;6.47;;;1.95;;
20480;SDS011;10399;50.754;3.366;2024-01-15T10:23:37;7.97;;;1.98;;
20480;SDS011;10399;50.754;3.366;2024-01-15T10:26:04;6.35;;;2.00;;
20480;SDS011;10399;50.754;3.366;2024-01-15T10:28:31;8.18;;;1.85;;
20480;SDS011;10399;50.754;3.366;2024-01-15T10:31:00;4.68;;;1.52;;
20480;SDS011;10399;50.754;3.366;2024-01-15T10:33:28;6.68;;;2.05;;
20480;SDS011;10399;50.754;3.366;2024-01-15T10:36:00;4.38;;;1.95;;
20480;SDS011;10399;50.754;3.366;2024-01-15T10:38:27;6.32;;;1.63;;
20480;SDS011;10399;50.754;3.366;2024-01-15T10:40:54;9.30;;;1.50;;
20480;SDS011;10399;50.754;3.366;2024-01-15T10:43:22;9.82;;;1.52;;
20480;SDS011;10399;50.754;3.366;2024-01-15T10:45:54;8.50;;;1.80;;
20480;SDS011;10399;50.754;3.366;2024-01-15T10:48:21;4.30;;;1.23;;
20480;SDS011;10399;50.754;3.366;2024-01-15T10:50:49;4.00;;;1.48;;
20480;SDS011;10399;50.754;3.366;2024-01-15T10:53:16;4.05;;;1.60;;
20480;SDS011;10399;50.754;3.366;2024-01-15T10:55:44;9.40;;;2.00;;
20480;SDS011;10399;50.754;3.366;2024-01-15T10:58:15;11.63;;;2.08;;
20480;SDS011;10399;50.754;3.366;2024-01-15T11:00:43;6.07;;;1.30;;
20480;SDS011;10399;50.754;3.366;2024-01-15T11:03:11;6.43;;;1.70;;
20480;SDS011;10399;50.754;3.366;2024-01-15T11:05:39;7.03;;;1.60;;
20480;SDS011;10399;50.754;3.366;2024-01-15T11:08:09;3.72;;;1.30;;
20480;SDS011;10399;50.754;3.366;2024-01-15T11:10:41;4.40;;;1.50;;
20480;SDS011;10399;50.754;3.366;2024-01-15T11:13:14;6.32;;;1.40;;
20480;SDS011;10399;50.754;3.366;2024-01-15T11:16:03;7.75;;;1.63;;
20480;SDS011;10399;50.754;3.366;2024-01-15T11:18:37;6.05;;;1.45;;
20480;SDS011;10399;50.754;3.366;2024-01-15T11:23:48;6.05;;;1.20;;
20480;SDS011;10399;50.754;3.366;2024-01-15T11:29:08;6.45;;;1.60;;
20480;SDS011;10399;50.754;3.366;2024-01-15T11:37:26;6.70;;;1.55;;
20480;SDS011;10399;50.754;3.366;2024-01-15T11:40:02;5.30;;;1.40;;
20480;SDS011;10399;50.754;3.366;2024-01-15T11:42:30;7.05;;;1.48;;
20480;SDS011;10399;50.754;3.366;2024-01-15T11:44:57;5.00;;;1.45;;
20480;SDS011;10399;50.754;3.366;2024-01-15T11:47:38;3.28;;;1.33;;
20480;SDS011;10399;50.754;3.366;2024-01-15T11:50:14;6.53;;;1.77;;
20480;SDS011;10399;50.754;3.366;2024-01-15T11:52:41;7.60;;;1.63;;
20480;SDS011;10399;50.754;3.366;2024-01-15T11:55:27;9.60;;;1.48;;
20480;SDS011;10399;50.754;3.366;2024-01-15T11:58:00;6.63;;;1.50;;
20480;SDS011;10399;50.754;3.366;2024-01-15T12:00:29;7.30;;;1.65;;
20480;SDS011;10399;50.754;3.366;2024-01-15T12:02:58;10.20;;;1.20;;
20480;SDS011;10399;50.754;3.366;2024-01-15T12:05:26;7.90;;;1.58;;
20480;SDS011;10399;50.754;3.366;2024-01-15T12:07:52;5.88;;;1.38;;
20480;SDS011;10399;50.754;3.366;2024-01-15T12:10:20;6.70;;;1.02;;
20480;SDS011;10399;50.754;3.366;2024-01-15T12:15:41;4.97;;;1.15;;
20480;SDS011;10399;50.754;3.366;2024-01-15T12:18:11;4.65;;;1.20;;
20480;SDS011;10399;50.754;3.366;2024-01-15T12:20:40;7.45;;;1.30;;
20480;SDS011;10399;50.754;3.366;2024-01-15T12:23:09;5.88;;;1.33;;
20480;SDS011;10399;50.754;3.366;2024-01-15T12:25:39;7.78;;;1.30;;
20480;SDS011;10399;50.754;3.366;2024-01-15T12:28:07;8.55;;;1.23;;
20480;SDS011;10399;50.754;3.366;2024-01-15T12:30:34;5.53;;;1.20;;
20480;SDS011;10399;50.754;3.366;2024-01-15T12:33:03;7.90;;;1.65;;
20480;SDS011;10399;50.754;3.366;2024-01-15T12:35:33;10.27;;;1.65;;
20480;SDS011;10399;50.754;3.366;2024-01-15T12:38:01;7.35;;;1.60;;
20480;SDS011;10399;50.754;3.366;2024-01-15T12:40:30;8.13;;;1.48;;
20480;SDS011;10399;50.754;3.366;2024-01-15T12:42:59;10.15;;;2.13;;
20480;SDS011;10399;50.754;3.366;2024-01-15T12:45:26;12.05;;;1.33;;
20480;SDS011;10399;50.754;3.366;2024-01-15T12:47:53;8.48;;;1.42;;
20480;SDS011;10399;50.754;3.366;2024-01-15T12:50:23;4.50;;;1.35;;
20480;SDS011;10399;50.754;3.366;2024-01-15T12:52:51;5.80;;;1.40;;
20480;SDS011;10399;50.754;3.366;2024-01-15T12:55:19;5.85;;;1.83;;
20480;SDS011;10399;50.754;3.366;2024-01-15T12:57:45;10.75;;;1.75;;
20480;SDS011;10399;50.754;3.366;2024-01-15T13:00:13;6.05;;;1.75;;
20480;SDS011;10399;50.754;3.366;2024-01-15T13:02:44;6.25;;;1.27;;
20480;SDS011;10399;50.754;3.366;2024-01-15T13:05:11;4.97;;;1.50;;
20480;SDS011;10399;50.754;3.366;2024-01-15T13:07:41;6.57;;;1.45;;
20480;SDS011;10399;50.754;3.366;2024-01-15T13:10:09;6.35;;;1.52;;
20480;SDS011;10399;50.754;3.366;2024-01-15T13:12:37;8.43;;;1.70;;
20480;SDS011;10399;50.754;3.366;2024-01-15T13:15:05;10.50;;;1.50;;
20480;SDS011;10399;50.754;3.366;2024-01-15T13:17:39;5.55;;;1.25;;
20480;SDS011;10399;50.754;3.366;2024-01-15T13:20:06;7.32;;;1.65;;
20480;SDS011;10399;50.754;3.366;2024-01-15T13:22:35;8.98;;;1.58;;
20480;SDS011;10399;50.754;3.366;2024-01-15T13:25:02;8.40;;;1.70;;
20480;SDS011;10399;50.754;3.366;2024-01-15T13:27:30;6.43;;;1.55;;
20480;SDS011;10399;50.754;3.366;2024-01-15T13:29:57;8.00;;;1.58;;
20480;SDS011;10399;50.754;3.366;2024-01-15T13:32:28;11.55;;;1.70;;
20480;SDS011;10399;50.754;3.366;2024-01-15T13:34:56;7.10;;;1.60;;
20480;SDS011;10399;50.754;3.366;2024-01-15T13:37:24;9.35;;;1.65;;
20480;SDS011;10399;50.754;3.366;2024-01-15T13:39:51;11.25;;;2.17;;
20480;SDS011;10399;50.754;3.366;2024-01-15T13:42:19;7.13;;;1.50;;
20480;SDS011;10399;50.754;3.366;2024-01-15T13:44:49;8.15;;;1.98;;
20480;SDS011;10399;50.754;3.366;2024-01-15T13:47:17;8.68;;;1.77;;
20480;SDS011;10399;50.754;3.366;2024-01-15T13:49:44;6.53;;;1.90;;
20480;SDS011;10399;50.754;3.366;2024-01-15T13:52:11;9.60;;;1.67;;
20480;SDS011;10399;50.754;3.366;2024-01-15T13:54:39;10.48;;;1.92;;
20480;SDS011;10399;50.754;3.366;2024-01-15T13:57:16;7.63;;;1.90;;
20480;SDS011;10399;50.754;3.366;2024-01-15T13:59:44;8.55;;;1.70;;
20480;SDS011;10399;50.754;3.366;2024-01-15T14:02:11;13.77;;;2.70;;
20480;SDS011;10399;50.754;3.366;2024-01-15T14:04:43;11.40;;;1.92;;
20480;SDS011;10399;50.754;3.366;2024-01-15T14:07:10;8.50;;;1.83;;
20480;SDS011;10399;50.754;3.366;2024-01-15T14:09:36;11.10;;;2.28;;
20480;SDS011;10399;50.754;3.366;2024-01-15T14:12:04;8.18;;;2.17;;
20480;SDS011;10399;50.754;3.366;2024-01-15T14:14:32;10.45;;;1.60;;
20480;SDS011;10399;50.754;3.366;2024-01-15T14:17:00;3.70;;;1.60;;
20480;SDS011;10399;50.754;3.366;2024-01-15T14:19:27;5.75;;;1.63;;
20480;SDS011;10399;50.754;3.366;2024-01-15T14:21:55;4.78;;;1.50;;
20480;SDS011;10399;50.754;3.366;2024-01-15T14:24:22;12.60;;;2.17;;
20480;SDS011;10399;50.754;3.366;2024-01-15T14:26:49;5.88;;;1.27;;
20480;SDS011;10399;50.754;3.366;2024-01-15T14:29:16;7.97;;;2.00;;
20480;SDS011;10399;50.754;3.366;2024-01-15T14:31:45;14.95;;;1.73;;
20480;SDS011;10399;50.754;3.366;2024-01-15T14:34:13;8.10;;;2.10;;
20480;SDS011;10399;50.754;3.366;2024-01-15T14:36:40;7.32;;;2.28;;
20480;SDS011;10399;50.754;3.366;2024-01-15T14:39:07;11.65;;;1.83;;
20480;SDS011;10399;50.754;3.366;2024-01-15T14:41:36;7.78;;;1.80;;
20480;SDS011;10399;50.754;3.366;2024-01-15T14:44:03;7.68;;;1.80;;
20480;SDS011;10399;50.754;3.366;2024-01-15T14:46:30;6.70;;;1.70;;
20480;SDS011;10399;50.754;3.366;2024-01-15T14:48:57;4.93;;;1.63;;
20480;SDS011;10399;50.754;3.366;2024-01-15T14:51:25;8.18;;;1.60;;
20480;SDS011;10399;50.754;3.366;2024-01-15T14:53:52;10.25;;;2.15;;
20480;SDS011;10399;50.754;3.366;2024-01-15T14:56:20;10.05;;;2.22;;
20480;SDS011;10399;50.754;3.366;2024-01-15T14:58:47;7.50;;;2.00;;
20480;SDS011;10399;50.754;3.366;2024-01-15T15:01:14;3.20;;;1.30;;
20480;SDS011;10399;50.754;3.366;2024-01-15T15:03:42;7.75;;;1.50;;
20480;SDS011;10399;50.754;3.366;2024-01-15T15:06:10;6.32;;;2.00;;